Time;durP1;ratioP1;P1;durP2;ratioP2;P2;SDS_P1;SDS_P2;PMS_P1;PMS_P2;Temp;Humidity;BMP_temperature;BMP_pressure;BME280_temperature;BME280_humidity;BME280_pressure;Samples;Min_cycle;Max_cycle;Signal;HPM_P1;HPM_P2
2022/11/24 00:01:44;;;;;;;22.65;9.82;;;;;;;;;;5107558;28;20044;-62
2022/11/24 00:04:10;;;;;;;17.00;7.95;;;;;;;;;;5116630;27;20397;-62
2022/11/24 00:06:37;;;;;;;21.17;9.13;;;;;;;;;;5102363;27;20035;-62
2022/11/24 00:09:04;;;;;;;17.27;7.82;;;;;;;;;;5104777;28;20062;-62
2022/11/24 00:11:31;;;;;;;13.02;7.43;;;;;;;;;;5126064;27;20031;-63
2022/11/24 00:13:58;;;;;;;15.23;7.93;;;;;;;;;;5129845;27;20039;-62
2022/11/24 00:16:28;;;;;;;19.40;7.88;;;;;;;;;;5114471;27;20495;-62
2022/11/24 00:18:55;;;;;;;12.90;8.18;;;;;;;;;;5103489;28;20416;-63
2022/11/24 00:21:21;;;;;;;14.07;7.10;;;;;;;;;;5109714;27;20043;-63
2022/11/24 00:23:48;;;;;;;17.98;7.50;;;;;;;;;;5125189;27;20046;-62
2022/11/24 00:26:15;;;;;;;16.83;8.07;;;;;;;;;;5116850;27;20039;-63
2022/11/24 00:28:43;;;;;;;16.75;8.52;;;;;;;;;;5120975;27;20068;-62
2022/11/24 00:31:21;;;;;;;21.45;8.02;;;;;;;;;;5112164;27;20038;-63
2022/11/24 00:33:48;;;;;;;21.05;8.25;;;;;;;;;;5128504;27;20054;-63
2022/11/24 00:36:15;;;;;;;15.10;7.78;;;;;;;;;;5120965;27;20043;-62
2022/11/24 00:38:41;;;;;;;13.57;7.68;;;;;;;;;;5117063;27;20447;-63
2022/11/24 00:41:07;;;;;;;18.98;7.95;;;;;;;;;;5117494;27;20126;-63
2022/11/24 00:43:34;;;;;;;20.63;8.15;;;;;;;;;;5124852;27;20042;-63
2022/11/24 00:46:00;;;;;;;19.70;8.63;;;;;;;;;;5125193;27;20114;-62
2022/11/24 00:48:26;;;;;;;17.00;8.85;;;;;;;;;;5118332;27;20043;-63
2022/11/24 00:51:04;;;;;;;19.95;9.40;;;;;;;;;;5112099;27;20039;-63
2022/11/24 00:53:30;;;;;;;14.98;8.05;;;;;;;;;;5119455;27;20039;-62
2022/11/24 00:55:56;;;;;;;19.40;7.53;;;;;;;;;;5108790;27;20096;-63
2022/11/24 00:58:23;;;;;;;23.00;8.90;;;;;;;;;;5111367;27;20428;-63
2022/11/24 01:00:50;;;;;;;22.08;8.52;;;;;;;;;;5126349;27;20129;-62
2022/11/24 01:03:17;;;;;;;17.75;8.57;;;;;;;;;;5124165;27;20088;-62
2022/11/24 01:05:46;;;;;;;13.30;7.95;;;;;;;;;;5126417;27;20039;-62
2022/11/24 01:08:12;;;;;;;25.60;8.20;;;;;;;;;;5094003;27;20039;-63
2022/11/24 01:10:38;;;;;;;20.08;9.40;;;;;;;;;;5106385;28;20067;-63
2022/11/24 01:13:05;;;;;;;19.38;7.78;;;;;;;;;;5122300;27;20039;-63
2022/11/24 01:15:31;;;;;;;22.17;7.38;;;;;;;;;;5124762;27;20103;-62
2022/11/24 01:17:57;;;;;;;17.67;8.05;;;;;;;;;;5117276;27;20051;-62
2022/11/24 01:20:23;;;;;;;21.15;8.38;;;;;;;;;;5106129;27;20043;-63
2022/11/24 01:22:50;;;;;;;16.00;7.57;;;;;;;;;;5109991;27;20043;-62
2022/11/24 01:25:16;;;;;;;16.88;7.88;;;;;;;;;;5122728;27;20039;-63
2022/11/24 01:27:42;;;;;;;17.50;7.65;;;;;;;;;;5124170;27;20035;-63
2022/11/24 01:30:08;;;;;;;16.65;6.60;;;;;;;;;;5123325;27;20036;-62
2022/11/24 01:32:36;;;;;;;15.43;7.28;;;;;;;;;;5110718;27;20047;-63
2022/11/24 01:35:05;;;;;;;23.88;8.18;;;;;;;;;;5123627;27;20043;-63
2022/11/24 01:37:32;;;;;;;17.83;7.72;;;;;;;;;;5121673;27;20063;-63
2022/11/24 01:39:58;;;;;;;20.75;7.10;;;;;;;;;;5124097;27;20557;-63
2022/11/24 01:42:24;;;;;;;16.13;7.13;;;;;;;;;;5110651;27;20587;-62
2022/11/24 01:45:09;;;;;;;21.70;8.23;;;;;;;;;;5125642;27;20088;-62
2022/11/24 01:47:39;;;;;;;13.93;7.43;;;;;;;;;;5114874;27;20493;-62
2022/11/24 01:50:08;;;;;;;16.95;6.88;;;;;;;;;;5109490;28;20061;-62
2022/11/24 01:52:40;;;;;;;19.08;6.63;;;;;;;;;;5115808;27;20069;-63
2022/11/24 01:55:08;;;;;;;19.35;7.68;;;;;;;;;;5115528;28;20043;-63
2022/11/24 01:58:00;;;;;;;22.67;7.78;;;;;;;;;;5097373;28;20044;-63
2022/11/24 02:00:27;;;;;;;19.13;9.00;;;;;;;;;;5110718;28;20080;-63
2022/11/24 02:02:53;;;;;;;21.63;7.82;;;;;;;;;;5111994;28;20326;-63
2022/11/24 02:05:41;;;;;;;17.65;6.95;;;;;;;;;;5114639;28;20023;-62
2022/11/24 02:08:11;;;;;;;15.77;6.32;;;;;;;;;;5114876;28;20070;-63
2022/11/24 02:10:38;;;;;;;15.60;5.85;;;;;;;;;;5103003;28;20133;-63
2022/11/24 02:13:04;;;;;;;13.68;6.68;;;;;;;;;;5087036;28;20036;-63
2022/11/24 02:15:31;;;;;;;23.30;7.25;;;;;;;;;;5107309;28;20054;-63
2022/11/24 02:17:58;;;;;;;16.75;6.05;;;;;;;;;;5126642;27;20054;-62
2022/11/24 02:20:25;;;;;;;19.92;6.18;;;;;;;;;;5114774;27;20097;-63
2022/11/24 02:22:57;;;;;;;15.25;5.88;;;;;;;;;;5105542;27;20496;-63
2022/11/24 02:25:44;;;;;;;13.63;5.72;;;;;;;;;;5114503;27;20035;-62
2022/11/24 02:28:12;;;;;;;21.10;6.43;;;;;;;;;;5131249;27;20046;-63
2022/11/24 02:30:38;;;;;;;21.67;9.38;;;;;;;;;;5118451;27;20162;-63
2022/11/24 02:33:05;;;;;;;18.95;6.07;;;;;;;;;;5112265;27;20481;-63
2022/11/24 02:35:31;;;;;;;19.85;6.00;;;;;;;;;;5113650;27;20042;-63
2022/11/24 02:37:57;;;;;;;16.02;5.53;;;;;;;;;;5130558;27;20416;-63
2022/11/24 02:40:26;;;;;;;16.00;6.10;;;;;;;;;;5131804;27;20151;-63
2022/11/24 02:43:02;;;;;;;17.10;6.60;;;;;;;;;;5130054;27;20027;-62
2022/11/24 02:45:30;;;;;;;15.15;5.32;;;;;;;;;;5127753;27;20031;-63
2022/11/24 02:47:57;;;;;;;15.82;4.93;;;;;;;;;;5119357;27;20039;-63
2022/11/24 02:50:23;;;;;;;14.45;5.15;;;;;;;;;;5127523;27;20091;-62
2022/11/24 02:52:49;;;;;;;24.73;6.75;;;;;;;;;;5117468;27;20035;-63
2022/11/24 02:55:15;;;;;;;19.50;5.65;;;;;;;;;;5095090;27;20039;-63
2022/11/24 02:57:41;;;;;;;17.60;5.93;;;;;;;;;;5114798;27;20054;-62
2022/11/24 03:00:08;;;;;;;11.02;4.78;;;;;;;;;;5120666;27;20450;-62
2022/11/24 03:02:34;;;;;;;12.52;5.53;;;;;;;;;;5104727;28;20118;-62
2022/11/24 03:05:00;;;;;;;13.25;5.75;;;;;;;;;;5107410;28;20127;-62
2022/11/24 03:07:27;;;;;;;13.65;4.95;;;;;;;;;;5128312;27;20541;-63
2022/11/24 03:09:53;;;;;;;14.63;5.63;;;;;;;;;;5121822;27;20477;-62
2022/11/24 03:12:19;;;;;;;14.88;5.28;;;;;;;;;;5128655;27;20500;-63
2022/11/24 03:14:45;;;;;;;14.50;5.95;;;;;;;;;;5125831;27;20031;-62
2022/11/24 03:17:12;;;;;;;14.95;5.03;;;;;;;;;;5120550;27;20115;-63
2022/11/24 03:19:38;;;;;;;12.98;5.85;;;;;;;;;;5112589;27;20045;-63
2022/11/24 03:22:04;;;;;;;21.25;6.50;;;;;;;;;;5130000;27;20047;-63
2022/11/24 03:24:30;;;;;;;18.17;5.70;;;;;;;;;;5110574;27;20106;-62
2022/11/24 03:26:56;;;;;;;16.67;6.05;;;;;;;;;;5117899;27;20066;-62
2022/11/24 03:29:23;;;;;;;16.98;5.25;;;;;;;;;;5128380;27;20593;-63
2022/11/24 03:31:49;;;;;;;12.32;5.38;;;;;;;;;;5106552;27;20085;-63
2022/11/24 03:34:15;;;;;;;13.93;5.65;;;;;;;;;;5119532;27;20476;-62
2022/11/24 03:36:41;;;;;;;9.73;5.50;;;;;;;;;;5091697;27;20042;-62
2022/11/24 03:39:08;;;;;;;24.35;6.47;;;;;;;;;;5126773;27;20465;-62
2022/11/24 03:41:34;;;;;;;21.42;6.70;;;;;;;;;;5111364;27;20035;-63
2022/11/24 03:44:00;;;;;;;13.77;4.88;;;;;;;;;;5127781;27;20166;-63
2022/11/24 03:46:26;;;;;;;16.38;5.38;;;;;;;;;;5130364;27;20054;-63
2022/11/24 03:48:52;;;;;;;14.50;5.20;;;;;;;;;;5090050;28;20043;-62
2022/11/24 03:51:18;;;;;;;15.85;6.00;;;;;;;;;;5112546;27;20035;-63
2022/11/24 03:53:44;;;;;;;22.75;5.40;;;;;;;;;;5123800;27;20078;-62
2022/11/24 03:56:11;;;;;;;13.63;5.57;;;;;;;;;;5126061;27;20039;-62
2022/11/24 03:58:37;;;;;;;18.90;4.90;;;;;;;;;;5109866;27;20045;-63
2022/11/24 04:01:03;;;;;;;16.38;5.07;;;;;;;;;;5126127;27;20275;-62
2022/11/24 04:03:30;;;;;;;17.13;5.97;;;;;;;;;;5119974;27;20114;-65
2022/11/24 04:05:56;;;;;;;15.93;5.43;;;;;;;;;;5121071;27;20035;-63
2022/11/24 04:08:22;;;;;;;17.02;6.47;;;;;;;;;;5124487;27;20705;-62
2022/11/24 04:10:49;;;;;;;16.15;4.90;;;;;;;;;;5114881;27;20038;-62
2022/11/24 04:13:16;;;;;;;16.67;5.03;;;;;;;;;;5124622;27;20035;-62
2022/11/24 04:15:43;;;;;;;14.20;4.68;;;;;;;;;;5128523;27;20045;-63
2022/11/24 04:18:10;;;;;;;10.68;4.80;;;;;;;;;;5090534;28;20047;-62
2022/11/24 04:20:36;;;;;;;23.20;6.03;;;;;;;;;;5097704;28;20417;-63
2022/11/24 04:23:02;;;;;;;14.68;4.43;;;;;;;;;;5090475;28;20044;-63
2022/11/24 04:25:29;;;;;;;11.55;5.22;;;;;;;;;;5106131;27;20039;-62
2022/11/24 04:27:55;;;;;;;15.52;4.50;;;;;;;;;;5093027;28;20041;-62
2022/11/24 04:30:22;;;;;;;12.20;4.45;;;;;;;;;;5090436;28;20638;-63
2022/11/24 04:32:49;;;;;;;13.40;5.60;;;;;;;;;;5100243;28;20103;-63
2022/11/24 04:35:15;;;;;;;13.57;4.88;;;;;;;;;;5096421;28;20111;-63
2022/11/24 04:37:41;;;;;;;18.65;5.10;;;;;;;;;;5086561;28;20092;-63
2022/11/24 04:40:09;;;;;;;18.83;5.30;;;;;;;;;;5094459;28;20051;-63
2022/11/24 04:42:35;;;;;;;16.73;5.40;;;;;;;;;;5088904;28;20485;-62
2022/11/24 04:45:01;;;;;;;20.77;5.43;;;;;;;;;;5094168;28;20044;-63
2022/11/24 04:47:28;;;;;;;16.95;4.88;;;;;;;;;;5102364;28;20059;-63
2022/11/24 04:49:54;;;;;;;16.63;4.72;;;;;;;;;;5097870;28;20413;-63
2022/11/24 04:52:21;;;;;;;19.30;4.85;;;;;;;;;;5098651;28;20050;-63
2022/11/24 04:54:48;;;;;;;18.15;4.68;;;;;;;;;;5092074;28;21560;-63
2022/11/24 04:57:18;;;;;;;16.35;4.53;;;;;;;;;;5089822;28;20036;-63
2022/11/24 04:59:44;;;;;;;15.73;4.07;;;;;;;;;;5099366;28;20404;-63
2022/11/24 05:02:11;;;;;;;16.45;4.25;;;;;;;;;;5099945;28;20119;-63
2022/11/24 05:04:37;;;;;;;18.17;4.13;;;;;;;;;;5105265;28;20032;-63
2022/11/24 05:07:04;;;;;;;13.15;4.50;;;;;;;;;;5088687;28;20052;-63
2022/11/24 05:09:30;;;;;;;13.63;4.63;;;;;;;;;;5094614;28;20043;-62
2022/11/24 05:11:56;;;;;;;15.63;5.03;;;;;;;;;;5093607;28;20049;-63
2022/11/24 05:14:22;;;;;;;12.93;4.82;;;;;;;;;;5103869;28;20501;-63
2022/11/24 05:16:48;;;;;;;14.52;4.30;;;;;;;;;;5100231;27;20474;-63
2022/11/24 05:19:15;;;;;;;13.27;4.22;;;;;;;;;;5106279;27;20050;-63
2022/11/24 05:21:41;;;;;;;12.70;4.35;;;;;;;;;;5120433;27;20027;-62
2022/11/24 05:24:07;;;;;;;12.32;4.43;;;;;;;;;;5109436;27;20035;-62
2022/11/24 05:26:34;;;;;;;12.40;4.57;;;;;;;;;;5116627;27;20093;-62
2022/11/24 05:29:00;;;;;;;13.63;4.07;;;;;;;;;;5123786;27;20070;-63
2022/11/24 05:31:26;;;;;;;11.68;4.53;;;;;;;;;;5108921;27;20030;-63
2022/11/24 05:33:53;;;;;;;16.42;5.78;;;;;;;;;;5114499;27;20036;-62
2022/11/24 05:39:04;;;;;;;14.40;5.07;;;;;;;;;;5123326;27;20469;-62
2022/11/24 05:41:30;;;;;;;14.55;5.45;;;;;;;;;;5119823;27;20125;-63
2022/11/24 05:43:57;;;;;;;17.15;5.95;;;;;;;;;;5099756;28;20317;-63
2022/11/24 05:46:23;;;;;;;12.70;4.50;;;;;;;;;;5120017;27;20038;-63
2022/11/24 05:48:49;;;;;;;14.02;4.43;;;;;;;;;;5118366;27;20038;-64
2022/11/24 05:51:15;;;;;;;11.10;5.30;;;;;;;;;;5102828;28;20036;-63
2022/11/24 05:53:41;;;;;;;10.60;4.13;;;;;;;;;;5105268;27;20039;-63
2022/11/24 05:56:08;;;;;;;17.67;5.00;;;;;;;;;;5117723;28;20074;-63
2022/11/24 05:58:34;;;;;;;16.92;5.13;;;;;;;;;;5119276;28;20051;-62
2022/11/24 06:01:00;;;;;;;15.32;4.65;;;;;;;;;;5104220;28;20092;-63
2022/11/24 06:03:26;;;;;;;15.73;4.80;;;;;;;;;;5111409;28;20048;-63
2022/11/24 06:05:52;;;;;;;13.40;4.38;;;;;;;;;;5112348;28;20508;-63
2022/11/24 06:08:19;;;;;;;13.38;5.00;;;;;;;;;;5081048;28;20377;-63
2022/11/24 06:10:45;;;;;;;16.30;4.60;;;;;;;;;;5113367;28;20039;-63
2022/11/24 06:13:11;;;;;;;13.57;4.45;;;;;;;;;;5115837;28;20049;-63
2022/11/24 06:15:39;;;;;;;17.23;5.15;;;;;;;;;;5112610;28;20040;-64
2022/11/24 06:18:05;;;;;;;15.25;5.05;;;;;;;;;;5121159;28;20047;-62
2022/11/24 06:20:31;;;;;;;8.90;4.00;;;;;;;;;;5108190;28;20509;-62
2022/11/24 06:22:58;;;;;;;11.95;4.53;;;;;;;;;;5104757;28;20378;-63
2022/11/24 06:25:25;;;;;;;15.50;4.82;;;;;;;;;;5122085;28;20046;-63
2022/11/24 06:27:51;;;;;;;9.80;4.35;;;;;;;;;;5118232;28;20174;-62
2022/11/24 06:30:17;;;;;;;14.93;4.40;;;;;;;;;;5108197;28;20035;-63
2022/11/24 06:32:45;;;;;;;11.95;4.97;;;;;;;;;;5122170;28;20540;-63
2022/11/24 06:35:12;;;;;;;15.40;5.05;;;;;;;;;;5119136;28;20040;-63
2022/11/24 06:37:38;;;;;;;19.05;5.80;;;;;;;;;;5116911;28;20065;-63
2022/11/24 06:40:07;;;;;;;8.63;3.70;;;;;;;;;;5121244;28;20046;-62
2022/11/24 06:42:34;;;;;;;9.07;5.25;;;;;;;;;;5126603;28;20144;-63
2022/11/24 06:45:00;;;;;;;9.50;4.00;;;;;;;;;;5118560;28;20043;-63
2022/11/24 06:47:27;;;;;;;13.80;4.10;;;;;;;;;;5122126;28;20489;-63
2022/11/24 06:49:53;;;;;;;14.43;4.60;;;;;;;;;;5121012;28;20039;-63
2022/11/24 06:52:20;;;;;;;8.77;3.55;;;;;;;;;;5118079;28;20121;-62
2022/11/24 06:54:46;;;;;;;9.45;3.83;;;;;;;;;;5110400;28;20046;-63
2022/11/24 06:57:13;;;;;;;10.32;4.15;;;;;;;;;;5106584;28;20027;-63
2022/11/24 06:59:39;;;;;;;11.25;4.50;;;;;;;;;;5111824;28;20031;-63
2022/11/24 07:02:06;;;;;;;11.00;3.75;;;;;;;;;;5125211;27;20703;-63
2022/11/24 07:04:32;;;;;;;9.98;3.22;;;;;;;;;;5108298;27;20166;-62
2022/11/24 07:06:58;;;;;;;12.48;4.22;;;;;;;;;;5106783;27;20042;-62
2022/11/24 07:09:24;;;;;;;17.58;3.97;;;;;;;;;;5118653;27;20118;-62
2022/11/24 07:11:51;;;;;;;12.10;4.10;;;;;;;;;;5108087;28;20071;-62
2022/11/24 07:14:18;;;;;;;9.70;3.75;;;;;;;;;;5122532;27;20035;-62
2022/11/24 07:16:45;;;;;;;15.85;4.05;;;;;;;;;;5114892;27;20051;-63
2022/11/24 07:19:11;;;;;;;9.30;3.88;;;;;;;;;;5111960;27;20062;-63
2022/11/24 07:21:37;;;;;;;12.85;4.93;;;;;;;;;;5115869;27;20127;-62
2022/11/24 07:24:04;;;;;;;13.18;4.45;;;;;;;;;;5104300;28;20084;-62
2022/11/24 07:26:35;;;;;;;13.45;4.05;;;;;;;;;;5119218;27;20046;-63
2022/11/24 07:29:04;;;;;;;11.73;3.90;;;;;;;;;;5120635;27;20501;-62
2022/11/24 07:31:30;;;;;;;7.57;3.60;;;;;;;;;;5112924;27;20082;-63
2022/11/24 07:33:56;;;;;;;13.90;3.80;;;;;;;;;;5121344;27;20039;-62
2022/11/24 07:36:23;;;;;;;10.70;3.47;;;;;;;;;;5124012;27;20031;-63
2022/11/24 07:38:50;;;;;;;9.65;4.15;;;;;;;;;;5114849;27;20285;-62
2022/11/24 07:41:18;;;;;;;7.82;3.53;;;;;;;;;;5114638;27;20070;-62
2022/11/24 07:43:45;;;;;;;10.18;3.78;;;;;;;;;;5120132;27;20039;-63
2022/11/24 07:46:12;;;;;;;9.68;4.25;;;;;;;;;;5115204;27;20035;-63
2022/11/24 07:48:38;;;;;;;8.00;4.00;;;;;;;;;;5127789;27;20091;-63
2022/11/24 07:51:05;;;;;;;9.75;3.47;;;;;;;;;;5119739;27;20035;-62
2022/11/24 07:53:33;;;;;;;10.57;4.47;;;;;;;;;;5113964;27;20035;-63
2022/11/24 07:56:00;;;;;;;14.05;4.63;;;;;;;;;;5125309;27;20043;-63
2022/11/24 07:58:28;;;;;;;8.55;4.43;;;;;;;;;;5108842;27;20636;-65
2022/11/24 08:00:54;;;;;;;14.30;5.03;;;;;;;;;;5122029;27;20043;-62
2022/11/24 08:03:20;;;;;;;11.05;4.35;;;;;;;;;;5120063;27;20074;-62
2022/11/24 08:05:56;;;;;;;13.45;4.85;;;;;;;;;;5114356;27;20044;-62
2022/11/24 08:08:23;;;;;;;10.88;4.53;;;;;;;;;;5115338;27;20118;-62
2022/11/24 08:10:50;;;;;;;18.73;5.13;;;;;;;;;;5112868;27;20035;-62
2022/11/24 08:13:18;;;;;;;13.70;5.38;;;;;;;;;;5122683;27;20063;-62
2022/11/24 08:15:45;;;;;;;19.15;5.22;;;;;;;;;;5102051;27;20771;-62
2022/11/24 08:18:12;;;;;;;9.77;4.70;;;;;;;;;;5126609;27;20058;-62
2022/11/24 08:20:40;;;;;;;12.77;4.82;;;;;;;;;;5112303;27;20134;-63
2022/11/24 08:23:07;;;;;;;12.32;5.32;;;;;;;;;;5124247;27;20027;-63
2022/11/24 08:25:35;;;;;;;11.57;6.05;;;;;;;;;;5102021;27;20047;-63
2022/11/24 08:28:04;;;;;;;12.45;5.85;;;;;;;;;;5116628;27;20038;-63
2022/11/24 08:30:32;;;;;;;17.30;5.82;;;;;;;;;;5115216;27;20038;-63
2022/11/24 08:32:59;;;;;;;15.15;6.43;;;;;;;;;;5117798;27;20576;-62
2022/11/24 08:35:27;;;;;;;12.13;7.00;;;;;;;;;;5116370;27;20035;-63
2022/11/24 08:37:53;;;;;;;10.32;5.15;;;;;;;;;;5106468;27;20075;-63
2022/11/24 08:40:20;;;;;;;11.93;6.72;;;;;;;;;;5120683;27;20035;-64
2022/11/24 08:42:47;;;;;;;10.60;5.85;;;;;;;;;;5106390;27;20053;-62
2022/11/24 08:45:17;;;;;;;13.75;5.93;;;;;;;;;;5118532;27;20028;-62
2022/11/24 08:47:44;;;;;;;15.60;6.38;;;;;;;;;;5118307;27;20031;-62
2022/11/24 08:50:10;;;;;;;10.00;5.43;;;;;;;;;;5128066;27;20628;-62
2022/11/24 08:52:58;;;;;;;8.07;4.40;;;;;;;;;;5121744;27;20066;-62
2022/11/24 08:55:42;;;;;;;10.98;5.43;;;;;;;;;;5117962;27;20313;-63
2022/11/24 08:58:10;;;;;;;13.63;5.38;;;;;;;;;;5118277;27;20489;-63
2022/11/24 09:00:37;;;;;;;8.40;4.55;;;;;;;;;;5115752;27;20066;-65
2022/11/24 09:03:03;;;;;;;6.28;4.22;;;;;;;;;;5122030;27;20098;-65
2022/11/24 09:05:30;;;;;;;8.48;4.28;;;;;;;;;;5110534;27;20432;-65
2022/11/24 09:07:57;;;;;;;14.82;4.78;;;;;;;;;;5113795;27;20517;-66
2022/11/24 09:10:24;;;;;;;14.57;4.95;;;;;;;;;;5121050;27;20100;-65
2022/11/24 09:12:53;;;;;;;9.23;3.67;;;;;;;;;;5106773;28;20541;-65
2022/11/24 09:15:24;;;;;;;7.30;3.53;;;;;;;;;;5116497;27;20046;-65
2022/11/24 09:17:53;;;;;;;8.75;3.75;;;;;;;;;;5120780;27;20057;-65
2022/11/24 09:20:20;;;;;;;9.35;3.45;;;;;;;;;;5126980;27;20492;-65
2022/11/24 09:22:46;;;;;;;6.90;2.53;;;;;;;;;;5123039;27;20031;-65
2022/11/24 09:25:13;;;;;;;6.90;2.50;;;;;;;;;;5120291;27;20044;-65
2022/11/24 09:27:40;;;;;;;6.10;2.28;;;;;;;;;;5117869;27;20042;-65
2022/11/24 09:30:27;;;;;;;5.18;1.80;;;;;;;;;;5108250;27;20061;-65
2022/11/24 09:33:32;;;;;;;7.38;1.88;;;;;;;;;;5105868;27;20051;-65
2022/11/24 09:36:52;;;;;;;3.40;1.95;;;;;;;;;;5110539;28;20081;-65
2022/11/24 09:39:57;;;;;;;6.13;1.75;;;;;;;;;;5113263;27;20114;-65
2022/11/24 09:42:50;;;;;;;4.20;1.77;;;;;;;;;;5115605;27;20051;-65
2022/11/24 09:45:50;;;;;;;5.60;2.28;;;;;;;;;;5110980;27;20062;-65
2022/11/24 09:48:24;;;;;;;4.18;1.70;;;;;;;;;;5124868;27;20028;-65
2022/11/24 09:50:59;;;;;;;6.63;2.30;;;;;;;;;;5124818;27;20462;-65
2022/11/24 09:53:36;;;;;;;4.90;2.22;;;;;;;;;;5118973;27;20106;-65
2022/11/24 09:56:18;;;;;;;4.90;1.77;;;;;;;;;;5118318;27;20051;-65
2022/11/24 09:59:09;;;;;;;6.13;2.05;;;;;;;;;;5121045;28;20038;-66
2022/11/24 10:02:20;;;;;;;6.78;2.70;;;;;;;;;;5114120;28;20052;-65
2022/11/24 10:05:35;;;;;;;3.95;2.10;;;;;;;;;;5116694;28;20524;-65
2022/11/24 10:08:48;;;;;;;5.55;2.17;;;;;;;;;;5112393;28;20039;-65
2022/11/24 10:12:18;;;;;;;7.38;2.72;;;;;;;;;;5120280;28;20050;-65
2022/11/24 10:15:21;;;;;;;7.70;2.72;;;;;;;;;;5122026;28;20046;-65
2022/11/24 10:18:00;;;;;;;6.53;2.65;;;;;;;;;;5122410;28;20179;-64
2022/11/24 10:20:26;;;;;;;6.47;2.95;;;;;;;;;;5107788;28;20134;-65
2022/11/24 10:23:11;;;;;;;8.63;3.60;;;;;;;;;;5123751;28;20050;-65
2022/11/24 10:25:37;;;;;;;8.25;3.42;;;;;;;;;;5119717;28;20040;-65
2022/11/24 10:28:04;;;;;;;7.25;3.78;;;;;;;;;;5102569;28;20392;-63
2022/11/24 10:30:30;;;;;;;10.90;3.85;;;;;;;;;;5118160;28;20024;-63
2022/11/24 10:33:11;;;;;;;7.88;3.13;;;;;;;;;;5116399;28;20039;-63
2022/11/24 10:35:45;;;;;;;5.05;3.30;;;;;;;;;;5117810;28;20047;-63
2022/11/24 10:38:25;;;;;;;9.45;4.03;;;;;;;;;;5121147;27;20050;-63
2022/11/24 10:40:53;;;;;;;10.00;3.83;;;;;;;;;;5111905;27;20502;-63
2022/11/24 10:43:19;;;;;;;10.57;3.60;;;;;;;;;;5105591;27;20040;-64
2022/11/24 10:45:46;;;;;;;11.52;3.63;;;;;;;;;;5123441;27;20426;-63
2022/11/24 10:48:20;;;;;;;6.45;3.13;;;;;;;;;;5122547;27;20057;-63
2022/11/24 10:50:46;;;;;;;6.85;4.05;;;;;;;;;;5106233;27;20400;-63
2022/11/24 10:53:26;;;;;;;10.57;4.78;;;;;;;;;;5115299;27;20047;-63
2022/11/24 10:55:56;;;;;;;8.85;4.30;;;;;;;;;;5125354;27;20031;-63
2022/11/24 10:58:42;;;;;;;13.25;3.65;;;;;;;;;;5128249;27;20043;-63
2022/11/24 11:01:15;;;;;;;7.10;3.47;;;;;;;;;;5119843;27;20099;-63
2022/11/24 11:03:46;;;;;;;9.30;4.25;;;;;;;;;;5110148;27;20031;-63
2022/11/24 11:06:14;;;;;;;9.75;4.10;;;;;;;;;;5122042;27;20039;-63
2022/11/24 11:08:40;;;;;;;8.65;3.47;;;;;;;;;;5107313;27;20389;-63
2022/11/24 11:11:16;;;;;;;10.75;4.43;;;;;;;;;;5128195;27;20042;-64
2022/11/24 11:13:52;;;;;;;12.00;3.95;;;;;;;;;;5122016;27;20042;-63
2022/11/24 11:16:23;;;;;;;7.53;3.60;;;;;;;;;;5128455;27;20047;-63
2022/11/24 11:18:50;;;;;;;8.98;3.58;;;12.80;99.50;;;;;;5131132;27;20114;-63
2022/11/24 11:21:31;;;;;;;14.13;4.35;;;12.20;99.90;;;;;;5127094;27;20036;-63
2022/11/24 11:23:59;;;;;;;7.72;3.00;;;12.40;99.90;;;;;;5122844;27;21925;-63
2022/11/24 11:26:26;;;;;;;7.60;3.45;;;12.80;99.90;;;;;;5126593;27;20043;-63
2022/11/24 11:29:07;;;;;;;9.23;3.28;;;13.40;99.90;;;;;;5129879;27;20034;-63
2022/11/24 11:31:37;;;;;;;7.32;3.20;;;14.10;99.90;;;;;;5092112;28;20042;-63
2022/11/24 11:34:09;;;;;;;8.50;3.83;;;14.60;99.90;;;;;;5112389;27;20028;-63
2022/11/24 11:36:47;;;;;;;8.97;3.60;;;15.20;99.90;;;;;;5122430;27;20042;-63
2022/11/24 11:39:21;;;;;;;7.53;3.00;;;;;;;;;;5120117;27;20043;-63
2022/11/24 11:41:49;;;;;;;9.00;3.30;;;;;;;;;;5116374;27;20118;-63
2022/11/24 11:44:30;;;;;;;10.48;3.92;;;;;;;;;;5110193;27;20046;-63
2022/11/24 11:46:58;;;;;;;8.02;3.00;;;;;;;;;;5119647;27;20051;-63
2022/11/24 11:49:25;;;;;;;6.95;2.90;;;;;;;;;;5121645;27;20305;-63
2022/11/24 11:52:08;;;;;;;6.72;3.20;;;;;;;;;;5124307;27;20473;-63
2022/11/24 11:54:37;;;;;;;6.15;2.70;;;;;;;;;;5110821;27;20039;-63
2022/11/24 11:57:03;;;;;;;8.23;3.60;;;;;;;;;;5125492;27;20058;-63
2022/11/24 11:59:39;;;;;;;11.10;4.50;;;;;;;;;;5103402;27;20032;-64
2022/11/24 12:02:24;;;;;;;10.65;3.13;;;;;;;;;;5117285;27;20581;-63
2022/11/24 12:04:57;;;;;;;7.57;3.15;;;;;;;;;;5121226;27;20031;-64
2022/11/24 12:07:44;;;;;;;6.40;2.58;;;;;;;;;;5121888;27;20097;-63
2022/11/24 12:10:29;;;;;;;10.25;3.30;;;;;;;;;;5123253;27;20038;-63
2022/11/24 12:13:04;;;;;;;8.23;3.53;;;;;;;;;;5123308;27;20521;-63
2022/11/24 12:15:43;;;;;;;9.20;3.08;;;;;;;;;;5108397;28;20452;-63
2022/11/24 12:18:22;;;;;;;7.57;3.15;;;;;;;;;;5114919;27;20577;-63
2022/11/24 12:20:48;;;;;;;9.60;3.08;;;;;;;;;;5118759;27;20118;-64
2022/11/24 12:23:17;;;;;;;10.32;3.58;;;;;;;;;;5127842;27;20037;-64
2022/11/24 12:25:55;;;;;;;6.28;2.83;;;;;;;;;;5122908;27;20047;-64
2022/11/24 12:28:45;;;;;;;8.02;3.15;;;;;;;;;;5112338;27;20392;-64
2022/11/24 12:31:20;;;;;;;10.90;3.47;;;;;;;;;;5117235;27;20134;-64
2022/11/24 12:33:46;;;;;;;8.82;2.90;;;;;;;;;;5123316;27;20524;-64
2022/11/24 12:36:22;;;;;;;7.13;2.58;;;;;;;;;;5127343;27;20397;-64
2022/11/24 12:39:09;;;;;;;10.98;3.17;;;;;;;;;;5119105;27;20032;-64
2022/11/24 12:41:47;;;;;;;13.02;2.85;;;;;;;;;;5100533;27;20039;-64
2022/11/24 12:44:39;;;;;;;9.02;3.00;;;15.60;99.90;;;;;;5108364;27;20031;-64
2022/11/24 12:47:17;;;;;;;7.77;2.80;;;17.30;97.10;;;;;;5127649;27;20035;-64
2022/11/24 12:49:56;;;;;;;10.85;3.63;;;16.40;98.30;;;;;;5126243;27;20039;-64
2022/11/24 12:52:53;;;;;;;8.30;2.80;;;15.80;99.70;;;;;;5128755;27;20382;-64
2022/11/24 12:55:22;;;;;;;15.85;3.25;;;15.30;99.90;;;;;;5116640;27;20050;-64
2022/11/24 12:58:10;;;;;;;12.77;4.03;;;15.60;99.90;;;;;;5122728;27;20027;-64
2022/11/24 13:01:05;;;;;;;8.38;3.78;;;16.20;99.90;;;;;;5113108;27;20114;-64
2022/11/24 13:03:38;;;;;;;10.00;3.20;;;16.30;99.40;;;;;;5119483;27;20074;-64
2022/11/24 13:06:12;;;;;;;6.20;2.85;;;15.60;99.90;;;;;;5120083;27;20058;-64
2022/11/24 13:08:38;;;;;;;9.80;3.20;;;;;;;;;;5119243;27;20043;-64
2022/11/24 13:11:23;;;;;;;11.68;4.03;;;;;;;;;;5124002;27;20067;-64
2022/11/24 13:14:01;;;;;;;14.50;4.18;;;;;;;;;;5111045;27;20053;-64
2022/11/24 13:16:27;;;;;;;13.02;3.92;;;;;;;;;;5123171;27;20111;-64
2022/11/24 13:19:02;;;;;;;11.25;4.50;;;;;;;;;;5110125;27;20058;-66
2022/11/24 13:21:31;;;;;;;11.30;3.75;;;;;;;;;;5110573;27;20052;-64
2022/11/24 13:23:58;;;;;;;6.60;2.83;;;;;;;;;;5104711;27;20035;-64
2022/11/24 13:26:42;;;;;;;7.15;3.17;;;;;;;;;;5119254;27;20064;-64
2022/11/24 13:29:27;;;;;;;11.80;4.60;;;;;;;;;;5125353;27;20035;-64
2022/11/24 13:31:54;;;;;;;17.00;4.50;;;14.10;99.90;;;;;;5119954;27;20392;-64
2022/11/24 13:34:38;;;;;;;13.40;4.10;;;17.00;99.90;;;;;;5120533;27;20031;-64
2022/11/24 13:37:39;;;;;;;13.80;3.63;;;;;;;;;;5116992;27;20063;-64
2022/11/24 13:40:16;;;;;;;8.40;3.53;;;;;;;;;;5117563;27;20484;-65
2022/11/24 13:42:55;;;;;;;10.20;3.63;;;;;;;;;;5124742;27;20032;-64
2022/11/24 13:45:40;;;;;;;10.95;3.70;;;;;;;;;;5103156;27;20042;-64
2022/11/24 13:48:19;;;;;;;11.52;3.67;;;;;;;;;;5123515;27;20039;-64
2022/11/24 13:50:54;;;;;;;11.07;4.25;;;;;;;;;;5122801;27;20539;-64
2022/11/24 13:53:39;;;;;;;15.77;4.63;;;;;;;;;;5106702;28;20043;-64
2022/11/24 13:56:22;;;;;;;9.65;3.30;;;17.50;99.20;;;;;;5119261;27;20293;-64
2022/11/24 13:58:50;;;;;;;10.70;4.35;;;;;;;;;;5116455;28;20043;-63
2022/11/24 14:01:22;;;;;;;13.85;3.47;;;;;;;;;;5102186;28;20042;-63
2022/11/24 14:03:51;;;;;;;14.40;4.10;;;;;;;;;;5106919;28;20027;-63
2022/11/24 14:06:21;;;;;;;12.80;4.38;;;;;;;;;;5122379;28;20167;-63
2022/11/24 14:08:48;;;;;;;13.80;4.47;;;;;;;;;;5127451;28;20125;-63
2022/11/24 14:11:17;;;;;;;12.05;4.13;;;;;;;;;;5109690;27;20607;-63
2022/11/24 14:13:43;;;;;;;9.02;4.30;;;;;;;;;;5126914;27;20035;-63
2022/11/24 14:16:10;;;;;;;13.05;3.72;;;;;;;;;;5126549;27;20106;-64
2022/11/24 14:18:37;;;;;;;13.00;3.65;;;;;;;;;;5109432;28;20056;-63
2022/11/24 14:21:22;;;;;;;14.25;3.80;;;;;;;;;;5101439;28;20040;-63
2022/11/24 14:23:50;;;;;;;14.65;4.20;;;;;;;;;;5110399;28;20032;-63
2022/11/24 14:26:21;;;;;;;12.98;4.03;;;;;;;;;;5108529;28;20397;-63
2022/11/24 14:28:48;;;;;;;12.50;4.22;;;;;;;;;;5101885;28;20035;-63
2022/11/24 14:31:22;;;;;;;15.80;4.35;;;;;;;;;;5107016;28;20520;-63
2022/11/24 14:33:49;;;;;;;10.95;4.28;;;;;;;;;;5108478;28;20170;-63
2022/11/24 14:36:16;;;;;;;20.90;4.32;;;;;;;;;;5100457;28;20493;-63
2022/11/24 14:38:43;;;;;;;13.65;4.70;;;;;;;;;;5109873;28;20067;-63
2022/11/24 14:41:22;;;;;;;10.85;3.70;;;;;;;;;;5108338;28;20027;-63
2022/11/24 14:43:49;;;;;;;9.23;4.18;;;;;;;;;;5106609;28;20366;-63
2022/11/24 14:46:18;;;;;;;7.45;3.75;;;;;;;;;;5101672;28;20035;-63
2022/11/24 14:48:47;;;;;;;13.05;4.45;;;;;;;;;;5103866;28;20036;-63
2022/11/24 14:51:33;;;;;;;20.35;4.95;;;;;;;;;;5107868;28;20589;-63